createdAt,value
2022-12-11T00:00:22.786Z,98571.14
2022-12-11T00:03:16.312Z,98572.73
2022-12-11T00:05:49.479Z,98570.98
2022-12-11T00:08:21.667Z,98567.62
2022-12-11T00:10:54.220Z,98562.68
2022-12-11T00:13:26.491Z,98557.39
2022-12-11T00:16:01.010Z,98553.45
2022-12-11T00:18:33.279Z,98547.13
2022-12-11T00:21:07.088Z,98545.02
2022-12-11T00:23:39.560Z,98535.77
2022-12-11T00:26:15.004Z,98532.16
2022-12-11T00:28:47.980Z,98529.58
2022-12-11T00:31:22.721Z,98529.71
2022-12-11T00:33:55.642Z,98531.71
2022-12-11T00:36:29.564Z,98537.31
2022-12-11T00:39:05.367Z,98536.09
2022-12-11T00:41:38.080Z,98528.54
2022-12-11T00:44:10.414Z,98530.04
2022-12-11T00:46:43.283Z,98524.04
2022-12-11T00:49:15.264Z,98525.23
2022-12-11T00:51:47.838Z,98529.99
2022-12-11T00:54:21.337Z,98534.07
2022-12-11T00:56:53.299Z,98537.13
2022-12-11T00:59:25.575Z,98537.11
2022-12-11T01:01:57.840Z,98535.54
2022-12-11T01:04:29.800Z,98538.59
2022-12-11T01:07:02.686Z,98539.30
2022-12-11T01:09:52.361Z,98534.52
2022-12-11T01:12:24.938Z,98532.77
2022-12-11T01:14:57.310Z,98535.22
2022-12-11T01:17:29.687Z,98533.27
2022-12-11T01:20:02.061Z,98534.35
2022-12-11T01:22:34.436Z,98531.79
2022-12-11T01:25:07.350Z,98528.89
2022-12-11T01:27:39.890Z,98524.46
2022-12-11T01:30:14.491Z,98522.22
2022-12-11T01:32:48.088Z,98524.59
2022-12-11T01:35:20.893Z,98525.94
2022-12-11T01:37:53.368Z,98519.54
2022-12-11T01:40:26.276Z,98521.77
2022-12-11T01:42:58.624Z,98522.77
2022-12-11T01:45:44.822Z,98526.15
2022-12-11T01:48:22.620Z,98530.04
2022-12-11T01:50:57.665Z,98521.10
2022-12-11T01:53:32.892Z,98523.11
2022-12-11T01:56:06.017Z,98526.02
2022-12-11T01:58:43.373Z,98523.08
2022-12-11T02:01:21.720Z,98524.42
2022-12-11T02:03:54.465Z,98521.83
2022-12-11T02:06:40.424Z,98517.18
2022-12-11T02:09:16.002Z,98513.90
2022-12-11T02:11:59.842Z,98509.43
2022-12-11T02:14:40.617Z,98508.91
2022-12-11T02:17:17.695Z,98506.68
2022-12-11T02:20:04.708Z,98504.92
2022-12-11T02:22:56.556Z,98505.41
2022-12-11T02:25:34.167Z,98501.66
2022-12-11T02:28:18.809Z,98504.71
2022-12-11T02:30:56.796Z,98502.38
2022-12-11T02:33:35.416Z,98504.81
2022-12-11T02:36:11.111Z,98503.80
2022-12-11T02:38:47.021Z,98504.93
2022-12-11T02:41:19.187Z,98506.35
2022-12-11T02:43:53.811Z,98506.56
2022-12-11T02:46:27.716Z,98506.08
2022-12-11T02:49:01.307Z,98509.69
2022-12-11T02:51:39.022Z,98506.46
2022-12-11T02:54:15.689Z,98506.09
2022-12-11T02:56:52.054Z,98507.25
2022-12-11T02:59:28.625Z,98502.63
2022-12-11T03:02:01.393Z,98502.58
2022-12-11T03:04:35.314Z,98502.38
2022-12-11T03:07:13.426Z,98503.86
2022-12-11T03:09:48.557Z,98502.29
2022-12-11T03:12:25.436Z,98500.36
2022-12-11T03:15:00.889Z,98493.48
2022-12-11T03:17:37.249Z,98496.89
2022-12-11T03:20:21.660Z,98493.63
2022-12-11T03:23:00.010Z,98499.39
2022-12-11T03:25:37.812Z,98504.29
2022-12-11T03:28:15.202Z,98502.39
2022-12-11T03:30:50.649Z,98506.77
2022-12-11T03:33:26.907Z,98508.77
2022-12-11T03:36:02.454Z,98506.31
2022-12-11T03:38:38.520Z,98511.41
2022-12-11T03:41:13.138Z,98507.62
2022-12-11T03:43:45.831Z,98507.92
2022-12-11T03:46:20.165Z,98501.26
2022-12-11T03:48:53.734Z,98501.89
2022-12-11T03:51:26.926Z,98494.71
2022-12-11T03:54:00.834Z,98495.23
2022-12-11T03:56:36.995Z,98492.34
2022-12-11T03:59:10.005Z,98489.08
2022-12-11T04:01:44.004Z,98488.91
2022-12-11T04:04:16.791Z,98491.79
2022-12-11T04:06:49.460Z,98493.44
2022-12-11T04:09:22.642Z,98492.45
2022-12-11T04:11:54.891Z,98481.20
2022-12-11T04:14:45.000Z,98479.42
2022-12-11T04:17:37.611Z,98477.45
2022-12-11T04:20:29.802Z,98471.02
2022-12-11T04:23:19.972Z,98477.80
2022-12-11T04:25:52.650Z,98471.00
2022-12-11T04:28:25.124Z,98472.90
2022-12-11T04:30:57.544Z,98469.13
2022-12-11T04:33:30.635Z,98462.79
2022-12-11T04:36:03.066Z,98462.76
2022-12-11T04:38:35.944Z,98461.19
2022-12-11T04:41:10.569Z,98464.91
2022-12-11T04:43:45.346Z,98465.05
2022-12-11T04:46:21.426Z,98461.77
2022-12-11T04:48:57.568Z,98462.77
2022-12-11T04:51:31.014Z,98463.25
2022-12-11T04:54:03.795Z,98463.36
2022-12-11T04:56:36.064Z,98461.78
2022-12-11T04:59:08.634Z,98464.83
2022-12-11T05:01:40.780Z,98467.86
2022-12-11T05:04:13.387Z,98466.61
2022-12-11T05:06:45.450Z,98467.59
2022-12-11T05:09:17.722Z,98465.15
2022-12-11T05:11:49.989Z,98463.75
2022-12-11T05:14:22.673Z,98466.44
2022-12-11T05:16:55.044Z,98466.08
2022-12-11T05:19:27.924Z,98463.51
2022-12-11T05:21:59.992Z,98462.67
2022-12-11T05:24:32.055Z,98463.87
2022-12-11T05:27:04.152Z,98466.55
2022-12-11T05:29:37.618Z,98469.94
2022-12-11T05:32:10.915Z,98466.88
2022-12-11T05:34:43.387Z,98468.39
2022-12-11T05:37:15.559Z,98468.71
2022-12-11T05:39:47.722Z,98470.55
2022-12-11T05:42:22.868Z,98466.42
2022-12-11T05:44:59.426Z,98464.20
2022-12-11T05:47:31.938Z,98466.73
2022-12-11T05:50:04.581Z,98468.61
2022-12-11T05:52:36.953Z,98472.66
2022-12-11T05:55:10.745Z,98471.94
2022-12-11T05:57:43.232Z,98472.40
2022-12-11T06:00:16.243Z,98472.71
2022-12-11T06:02:48.649Z,98475.05
2022-12-11T06:05:21.065Z,98475.55
2022-12-11T06:07:53.347Z,98482.59
2022-12-11T06:10:25.606Z,98482.49
2022-12-11T06:12:57.771Z,98489.23
2022-12-11T06:15:29.947Z,98489.45
2022-12-11T06:18:02.106Z,98496.55
2022-12-11T06:20:36.454Z,98500.31
2022-12-11T06:23:10.133Z,98501.33
2022-12-11T06:25:42.906Z,98506.29
2022-12-11T06:28:15.383Z,98507.15
2022-12-11T06:30:47.449Z,98504.59
2022-12-11T06:33:19.718Z,98507.95
2022-12-11T06:35:52.298Z,98509.46
2022-12-11T06:38:24.973Z,98510.77
2022-12-11T06:40:59.599Z,98509.20
2022-12-11T06:43:32.076Z,98509.52
2022-12-11T06:46:06.513Z,98505.90
2022-12-11T06:48:39.236Z,98513.52
2022-12-11T06:51:13.592Z,98513.09
2022-12-11T06:53:46.479Z,98508.77
2022-12-11T06:56:18.647Z,98507.71
2022-12-11T06:58:52.253Z,98509.76
2022-12-11T07:01:27.774Z,98514.14
2022-12-11T07:04:01.800Z,98512.23
2022-12-11T07:06:34.072Z,98510.28
2022-12-11T07:09:07.917Z,98509.52
2022-12-11T07:11:40.043Z,98513.56
2022-12-11T07:14:12.824Z,98519.15
2022-12-11T07:16:45.118Z,98522.17
2022-12-11T07:19:17.874Z,98523.67
2022-12-11T07:21:50.043Z,98527.25
2022-12-11T07:24:22.313Z,98525.84
2022-12-11T07:26:54.374Z,98520.49
2022-12-11T07:29:26.646Z,98519.98
2022-12-11T07:31:59.830Z,98524.33
2022-12-11T07:34:32.620Z,98532.14
2022-12-11T07:37:05.018Z,98534.33
2022-12-11T07:39:37.609Z,98536.73
2022-12-11T07:42:09.941Z,98537.46
2022-12-11T07:44:42.211Z,98540.25
2022-12-11T07:47:14.889Z,98536.64
2022-12-11T07:49:47.171Z,98533.34
2022-12-11T07:52:20.163Z,98533.36
2022-12-11T07:54:52.320Z,98528.55
2022-12-11T07:57:24.381Z,98529.61
2022-12-11T07:59:56.546Z,98531.42
2022-12-11T08:02:32.622Z,98532.61
2022-12-11T08:05:10.916Z,98535.78
2022-12-11T08:07:43.446Z,98532.77
2022-12-11T08:10:15.964Z,98532.48
2022-12-11T08:12:48.234Z,98532.02
2022-12-11T08:15:20.792Z,98529.60
2022-12-11T08:17:53.285Z,98528.40
2022-12-11T08:20:25.761Z,98529.74
2022-12-11T08:22:59.286Z,98532.34
2022-12-11T08:25:31.937Z,98530.32
2022-12-11T08:28:04.615Z,98536.17
2022-12-11T08:30:40.306Z,98528.61
2022-12-11T08:33:12.845Z,98530.32
2022-12-11T08:35:47.059Z,98530.31
2022-12-11T08:38:24.988Z,98529.90
2022-12-11T08:40:57.844Z,98531.72
2022-12-11T08:43:30.010Z,98533.64
2022-12-11T08:46:02.194Z,98530.20
2022-12-11T08:48:34.857Z,98529.68
2022-12-11T08:51:08.921Z,98527.13
2022-12-11T08:53:41.048Z,98527.81
2022-12-11T08:56:15.868Z,98527.42
2022-12-11T08:58:48.854Z,98527.40
2022-12-11T09:01:23.972Z,98528.56
2022-12-11T09:03:57.797Z,98525.15
2022-12-11T09:06:31.904Z,98528.96
2022-12-11T09:09:04.998Z,98530.17
2022-12-11T09:11:38.289Z,98523.35
2022-12-11T09:14:11.291Z,98521.80
2022-12-11T09:16:43.777Z,98521.36
2022-12-11T09:19:18.167Z,98521.39
2022-12-11T09:21:50.438Z,98518.56
2022-12-11T09:24:22.721Z,98516.54
2022-12-11T09:26:55.491Z,98518.62
2022-12-11T09:29:27.763Z,98515.90
2022-12-11T09:32:00.847Z,98518.95
2022-12-11T09:34:33.430Z,98514.80
2022-12-11T09:37:05.490Z,98512.33
2022-12-11T09:39:37.861Z,98512.53
2022-12-11T09:42:16.171Z,98512.80
2022-12-11T09:44:52.817Z,98509.68
2022-12-11T09:47:28.953Z,98506.06
2022-12-11T09:50:14.282Z,98509.11
2022-12-11T09:53:02.729Z,98506.64
2022-12-11T09:55:42.178Z,98499.55
2022-12-11T09:58:22.150Z,98504.27
2022-12-11T10:01:00.428Z,98507.66
2022-12-11T10:04:04.749Z,98507.36
2022-12-11T10:06:43.270Z,98504.00
2022-12-11T10:09:24.653Z,98502.48
2022-12-11T10:12:07.260Z,98504.16
2022-12-11T10:14:57.122Z,98507.27
2022-12-11T10:17:33.137Z,98506.34
2022-12-11T10:20:23.837Z,98500.94
2022-12-11T10:22:57.193Z,98496.30
2022-12-11T10:25:32.539Z,98497.93
2022-12-11T10:28:14.583Z,98496.17
2022-12-11T10:30:58.950Z,98497.39
2022-12-11T10:33:42.221Z,98497.50
2022-12-11T10:36:20.511Z,98496.95
2022-12-11T10:38:52.672Z,98490.71
2022-12-11T10:41:35.001Z,98489.09
2022-12-11T10:44:18.637Z,98491.25
2022-12-11T10:47:04.841Z,98485.79
2022-12-11T10:49:39.931Z,98479.47
2022-12-11T10:52:21.455Z,98473.74
2022-12-11T10:55:00.586Z,98474.36
2022-12-11T10:57:35.527Z,98472.92
2022-12-11T11:00:09.897Z,98474.45
2022-12-11T11:02:46.392Z,98468.23
2022-12-11T11:05:29.324Z,98469.91
2022-12-11T11:08:14.597Z,98466.89
2022-12-11T11:10:57.831Z,98465.95
2022-12-11T11:13:32.772Z,98465.62
2022-12-11T11:16:10.026Z,98458.55
2022-12-11T11:18:43.645Z,98461.49
2022-12-11T11:21:21.996Z,98458.33
2022-12-11T11:23:55.526Z,98453.14
2022-12-11T11:26:43.905Z,98447.34
2022-12-11T11:29:30.104Z,98440.61
2022-12-11T11:32:16.911Z,98438.78
2022-12-11T11:34:49.385Z,98443.48
2022-12-11T11:37:33.841Z,98450.27
2022-12-11T11:40:14.850Z,98443.85
2022-12-11T11:42:55.378Z,98440.85
2022-12-11T11:45:32.770Z,98435.08
2022-12-11T11:48:19.375Z,98437.89
2022-12-11T11:50:54.100Z,98434.28
2022-12-11T11:53:33.146Z,98432.11
2022-12-11T11:56:17.686Z,98433.98
2022-12-11T11:58:57.689Z,98431.50
2022-12-11T12:01:30.933Z,98434.10
2022-12-11T12:04:05.657Z,98425.95
2022-12-11T12:06:52.057Z,98432.38
2022-12-11T12:09:37.604Z,98435.03
2022-12-11T12:12:25.464Z,98434.26
2022-12-11T12:15:18.427Z,98430.83
2022-12-11T12:17:56.590Z,98427.52
2022-12-11T12:20:38.843Z,98426.86
2022-12-11T12:23:30.723Z,98426.54
2022-12-11T12:26:07.851Z,98426.35
2022-12-11T12:28:49.341Z,98419.42
2022-12-11T12:31:34.083Z,98418.39
2022-12-11T12:34:18.247Z,98419.56
2022-12-11T12:37:01.271Z,98423.02
2022-12-11T12:39:41.083Z,98423.76
2022-12-11T12:42:25.488Z,98422.12
2022-12-11T12:45:05.047Z,98420.81
2022-12-11T12:47:37.995Z,98420.13
2022-12-11T12:50:16.922Z,98424.07
2022-12-11T12:52:52.397Z,98426.02
2022-12-11T12:55:27.370Z,98431.98
2022-12-11T12:58:01.514Z,98436.66
2022-12-11T13:00:36.901Z,98440.88
2022-12-11T13:03:18.405Z,98439.26
2022-12-11T13:06:02.283Z,98436.46
2022-12-11T13:08:41.289Z,98437.16
2022-12-11T13:11:16.756Z,98437.22
2022-12-11T13:14:03.321Z,98442.10
2022-12-11T13:16:41.656Z,98441.73
2022-12-11T13:19:31.961Z,98444.02
2022-12-11T13:22:21.745Z,98449.73
2022-12-11T13:25:02.120Z,98453.08
2022-12-11T13:27:43.800Z,98449.61
2022-12-11T13:30:26.870Z,98447.77
2022-12-11T13:33:15.572Z,98451.31
2022-12-11T13:35:46.819Z,98451.33
2022-12-11T13:38:22.465Z,98454.85
2022-12-11T13:40:56.995Z,98455.56
2022-12-11T13:43:32.840Z,98458.98
2022-12-11T13:46:07.011Z,98458.91
2022-12-11T13:48:46.702Z,98458.83
2022-12-11T13:51:21.395Z,98458.30
2022-12-11T13:54:06.262Z,98461.80
2022-12-11T13:56:38.767Z,98465.00
2022-12-11T13:59:25.791Z,98469.37
2022-12-11T14:02:01.910Z,98462.34
2022-12-11T14:04:35.639Z,98464.75
2022-12-11T14:07:11.908Z,98465.89
2022-12-11T14:09:44.790Z,98471.92
2022-12-11T14:12:22.797Z,98473.59
2022-12-11T14:14:58.863Z,98479.42
2022-12-11T14:17:34.313Z,98484.39
2022-12-11T14:20:17.523Z,98487.86
2022-12-11T14:22:50.322Z,98488.36
2022-12-11T14:25:26.159Z,98488.38
2022-12-11T14:27:58.842Z,98492.52
2022-12-11T14:30:34.285Z,98494.19
2022-12-11T14:33:07.680Z,98493.40
2022-12-11T14:35:43.634Z,98491.96
2022-12-11T14:38:18.056Z,98490.89
2022-12-11T14:40:54.729Z,98486.49
2022-12-11T14:43:34.986Z,98482.08
2022-12-11T14:46:11.126Z,98485.19
2022-12-11T14:48:49.456Z,98487.39
2022-12-11T14:51:22.851Z,98487.64
2022-12-11T14:53:56.864Z,98486.40
2022-12-11T14:56:31.201Z,98483.73
2022-12-11T14:59:10.401Z,98478.67
2022-12-11T15:01:43.530Z,98483.15
2022-12-11T15:04:28.262Z,98490.80
2022-12-11T15:07:00.759Z,98486.16
2022-12-11T15:09:40.833Z,98486.98
2022-12-11T15:12:15.724Z,98485.35
2022-12-11T15:14:53.010Z,98485.64
2022-12-11T15:17:26.919Z,98487.85
2022-12-11T15:20:04.825Z,98483.89
2022-12-11T15:22:37.864Z,98482.45
2022-12-11T15:25:22.223Z,98478.59
2022-12-11T15:27:57.104Z,98479.27
2022-12-11T15:30:33.258Z,98481.43
2022-12-11T15:33:18.938Z,98479.16
2022-12-11T15:36:00.030Z,98476.88
2022-12-11T15:38:35.112Z,98479.77
2022-12-11T15:41:07.974Z,98479.23
2022-12-11T15:43:40.814Z,98479.09
2022-12-11T15:46:14.128Z,98481.03
2022-12-11T15:48:46.277Z,98484.21
2022-12-11T15:51:18.648Z,98489.10
2022-12-11T15:53:50.917Z,98481.98
2022-12-11T15:56:23.505Z,98486.91
2022-12-11T15:58:56.992Z,98487.22
2022-12-11T16:01:29.520Z,98491.46
2022-12-11T16:04:05.217Z,98488.73
2022-12-11T16:06:38.204Z,98485.79
2022-12-11T16:09:10.374Z,98488.34
2022-12-11T16:11:42.437Z,98489.66
2022-12-11T16:14:14.809Z,98493.49
2022-12-11T16:16:46.979Z,98500.61
2022-12-11T16:19:19.758Z,98501.04
2022-12-11T16:21:53.365Z,98504.28
2022-12-11T16:24:25.731Z,98503.73
2022-12-11T16:26:58.204Z,98501.23
2022-12-11T16:29:30.701Z,98499.35
2022-12-11T16:32:02.846Z,98501.69
2022-12-11T16:34:34.910Z,98502.83
2022-12-11T16:37:07.737Z,98500.89
2022-12-11T16:39:43.146Z,98502.35
2022-12-11T16:42:15.509Z,98506.84
2022-12-11T16:44:48.495Z,98509.48
2022-12-11T16:47:20.969Z,98509.56
2022-12-11T16:49:53.441Z,98508.45
2022-12-11T16:52:25.757Z,98506.67
2022-12-11T16:54:59.722Z,98505.55
2022-12-11T16:57:32.198Z,98508.48
2022-12-11T17:00:05.695Z,98510.08
2022-12-11T17:02:38.225Z,98509.75
2022-12-11T17:05:11.244Z,98502.64
2022-12-11T17:07:43.634Z,98509.30
2022-12-11T17:10:15.719Z,98511.19
2022-12-11T17:12:48.171Z,98510.04
2022-12-11T17:15:20.951Z,98506.48
2022-12-11T17:17:53.121Z,98509.39
2022-12-11T17:20:25.831Z,98509.06
2022-12-11T17:22:58.171Z,98507.21
2022-12-11T17:25:30.234Z,98512.02
2022-12-11T17:28:02.501Z,98507.22
2022-12-11T17:30:35.082Z,98500.23
2022-12-11T17:33:07.560Z,98501.60
2022-12-11T17:35:40.851Z,98503.85
2022-12-11T17:38:12.917Z,98503.49
2022-12-11T17:40:46.205Z,98504.84
2022-12-11T17:43:18.381Z,98506.05
2022-12-11T17:45:53.315Z,98510.30
2022-12-11T17:48:26.199Z,98511.70
2022-12-11T17:50:58.976Z,98514.64
2022-12-11T17:53:31.347Z,98515.01
2022-12-11T17:56:06.380Z,98508.89
2022-12-11T17:58:38.857Z,98507.20
2022-12-11T18:01:12.662Z,98506.56
2022-12-11T18:03:45.177Z,98503.18
2022-12-11T18:06:18.840Z,98506.95
2022-12-11T18:08:51.826Z,98505.58
2022-12-11T18:11:25.061Z,98501.48
2022-12-11T18:13:57.693Z,98504.07
2022-12-11T18:16:32.161Z,98504.74
2022-12-11T18:19:04.280Z,98505.27
2022-12-11T18:21:40.855Z,98504.89
2022-12-11T18:24:13.535Z,98506.94
2022-12-11T18:26:46.348Z,98508.46
2022-12-11T18:29:18.889Z,98505.73
2022-12-11T18:31:54.641Z,98507.98
2022-12-11T18:34:26.807Z,98502.39
2022-12-11T18:36:59.489Z,98504.93
2022-12-11T18:39:31.858Z,98505.63
2022-12-11T18:42:31.605Z,98508.18
2022-12-11T18:44:56.468Z,98507.16
2022-12-11T18:47:28.845Z,98504.61
2022-12-11T18:50:07.126Z,98503.60
2022-12-11T18:52:40.138Z,98507.48
2022-12-11T18:55:12.767Z,98506.64
2022-12-11T18:57:45.793Z,98506.63
2022-12-11T19:00:19.908Z,98513.41
2022-12-11T19:02:54.161Z,98512.05
2022-12-11T19:05:26.482Z,98518.00
2022-12-11T19:07:58.595Z,98512.40
2022-12-11T19:10:31.454Z,98513.09
2022-12-11T19:13:03.827Z,98510.33
2022-12-11T19:15:38.651Z,98508.67
2022-12-11T19:18:11.134Z,98505.11
2022-12-11T19:20:56.747Z,98504.45
2022-12-11T19:23:35.329Z,98501.41
2022-12-11T19:26:10.766Z,98504.01
2022-12-11T19:28:43.863Z,98499.36
2022-12-11T19:31:19.355Z,98503.30
2022-12-11T19:33:53.320Z,98505.03
2022-12-11T19:36:27.736Z,98504.68
2022-12-11T19:39:02.210Z,98504.50
2022-12-11T19:41:35.451Z,98503.15
2022-12-11T19:44:07.780Z,98505.21
2022-12-11T19:46:40.319Z,98503.69
2022-12-11T19:49:13.589Z,98503.53
2022-12-11T19:51:46.255Z,98503.90
2022-12-11T19:54:19.328Z,98501.35
2022-12-11T19:56:51.631Z,98503.04
2022-12-11T19:59:24.000Z,98502.36
2022-12-11T20:01:56.313Z,98504.03
2022-12-11T20:04:29.873Z,98501.99
2022-12-11T20:07:03.268Z,98498.91
2022-12-11T20:09:36.562Z,98495.80
2022-12-11T20:12:10.555Z,98496.47
2022-12-11T20:14:42.610Z,98498.15
2022-12-11T20:17:15.475Z,98496.27
2022-12-11T20:19:47.687Z,98495.11
2022-12-11T20:22:20.162Z,98496.47
2022-12-11T20:24:52.334Z,98492.25
2022-12-11T20:27:26.244Z,98493.25
2022-12-11T20:29:58.411Z,98497.02
2022-12-11T20:32:31.344Z,98489.55
2022-12-11T20:35:04.374Z,98492.60
2022-12-11T20:37:37.363Z,98485.25
2022-12-11T20:40:12.355Z,98479.78
2022-12-11T20:42:44.570Z,98484.21
2022-12-11T20:45:17.446Z,98480.93
2022-12-11T20:47:50.232Z,98479.73
2022-12-11T20:50:23.119Z,98478.74
2022-12-11T20:52:55.587Z,98478.57
2022-12-11T20:55:27.757Z,98479.77
2022-12-11T20:57:59.925Z,98479.57
2022-12-11T21:00:32.202Z,98480.77
2022-12-11T21:03:04.257Z,98480.64
2022-12-11T21:05:40.939Z,98480.30
2022-12-11T21:08:14.209Z,98479.46
2022-12-11T21:10:47.516Z,98479.29
2022-12-11T21:13:20.125Z,98478.58
2022-12-11T21:15:52.914Z,98480.78
2022-12-11T21:18:26.169Z,98477.90
2022-12-11T21:21:00.180Z,98477.06
